Time;durP1;ratioP1;P1;durP2;ratioP2;P2;SDS_P1;SDS_P2;PMS_P1;PMS_P2;Temp;Humidity;BMP_temperature;BMP_pressure;BME280_temperature;BME280_humidity;BME280_pressure;Samples;Min_cycle;Max_cycle;Signal;HPM_P1;HPM_P2
2023/05/16 00:01:11;;;;;;;21.20;14.03;;;;;;;;;;5039456;28;20446;-45
2023/05/16 00:03:37;;;;;;;20.20;11.40;;;;;;;;;;5035803;28;20434;-46
2023/05/16 00:06:04;;;;;;;19.07;11.57;;;;;;;;;;5035050;28;20410;-46
2023/05/16 00:08:30;;;;;;;18.70;12.17;;;;;;;;;;5028070;28;20413;-46
2023/05/16 00:10:56;;;;;;;16.67;11.20;;;;;;;;;;5041827;28;20422;-45
2023/05/16 00:13:24;;;;;;;25.60;14.60;;;;;;;;;;5033283;28;20437;-45
2023/05/16 00:15:51;;;;;;;16.50;10.47;;;;;;;;;;5035215;28;20810;-46
2023/05/16 00:18:18;;;;;;;19.20;12.10;;;;;;;;;;5038529;28;20425;-46
2023/05/16 00:20:44;;;;;;;15.83;10.37;;;;;;;;;;5034346;28;20459;-46
2023/05/16 00:23:10;;;;;;;17.23;10.63;;;;;;;;;;5030985;28;20580;-45
2023/05/16 00:25:36;;;;;;;18.07;10.17;;;;;;;;;;5038424;28;20412;-46
2023/05/16 00:28:02;;;;;;;16.50;11.20;;;;;;;;;;5044922;28;20406;-46
2023/05/16 00:30:28;;;;;;;13.20;9.40;;;;;;;;;;5034478;28;20413;-45
2023/05/16 00:32:55;;;;;;;18.40;10.00;;;;;;;;;;5036548;28;20440;-45
2023/05/16 00:35:21;;;;;;;12.70;7.80;;;;;;;;;;5029511;28;20411;-45
2023/05/16 00:37:47;;;;;;;17.70;9.50;;;;;;;;;;5034667;28;20402;-45
2023/05/16 00:40:13;;;;;;;15.50;10.33;;;;;;;;;;5040194;28;21026;-47
2023/05/16 00:42:39;;;;;;;17.30;10.17;;;;;;;;;;5038521;28;20426;-45
2023/05/16 00:45:06;;;;;;;18.10;11.10;;;;;;;;;;5038965;28;20423;-44
2023/05/16 00:47:32;;;;;;;19.33;10.47;;;;;;;;;;5033157;28;20421;-46
2023/05/16 00:49:58;;;;;;;12.70;9.03;;;;;;;;;;5029824;28;20477;-45
2023/05/16 00:52:24;;;;;;;14.50;7.93;;;;;;;;;;5044229;28;20927;-45
2023/05/16 00:54:51;;;;;;;17.20;9.93;;;;;;;;;;5042565;28;20402;-45
2023/05/16 00:57:16;;;;;;;11.60;8.20;;;;;;;;;;5044221;28;20804;-46
2023/05/16 00:59:45;;;;;;;13.23;9.63;;;;;;;;;;5040067;28;20413;-45
2023/05/16 01:02:11;;;;;;;12.60;7.97;;;;;;;;;;5037864;28;20466;-46
2023/05/16 01:04:37;;;;;;;11.73;7.97;;;;;;;;;;5032642;28;20768;-45
2023/05/16 01:07:05;;;;;;;12.40;8.70;;;;;;;;;;5045149;28;20492;-45
2023/05/16 01:09:31;;;;;;;11.17;7.37;;;;;;;;;;5046075;28;20397;-46
2023/05/16 01:11:57;;;;;;;12.73;7.60;;;;;;;;;;5037615;28;20415;-45
2023/05/16 01:14:38;;;;;;;9.93;8.50;;;;;;;;;;5042400;28;20444;-45
2023/05/16 01:17:16;;;;;;;9.80;6.80;;;;;;;;;;5040937;28;20410;-45
2023/05/16 01:20:01;;;;;;;10.43;7.47;;;;;;;;;;5037370;28;20446;-45
2023/05/16 01:22:38;;;;;;;10.80;7.73;;;;;;;;;;5042229;28;20441;-45
2023/05/16 01:25:07;;;;;;;12.17;8.50;;;;;;;;;;5040704;28;20418;-45
2023/05/16 01:27:34;;;;;;;9.40;6.70;;;;;;;;;;5041401;28;20433;-45
2023/05/16 01:30:01;;;;;;;11.30;7.30;;;;;;;;;;5039319;28;20409;-45
2023/05/16 01:32:27;;;;;;;10.23;7.10;;;;;;;;;;5030893;28;20434;-45
2023/05/16 01:34:53;;;;;;;12.37;6.63;;;;;;;;;;5045119;28;20401;-45
2023/05/16 01:37:21;;;;;;;9.27;7.00;;;;;;;;;;5040961;28;20413;-46
2023/05/16 01:39:55;;;;;;;8.10;6.37;;;;;;;;;;5040871;28;20471;-45
2023/05/16 01:42:23;;;;;;;10.07;6.57;;;;;;;;;;5042842;28;21037;-46
2023/05/16 01:44:55;;;;;;;9.33;7.13;;;;;;;;;;5038611;28;20426;-45
2023/05/16 01:47:21;;;;;;;8.80;6.23;;;;;;;;;;5041970;28;20454;-45
2023/05/16 01:49:53;;;;;;;10.17;7.13;;;;;;;;;;5041514;28;20413;-45
2023/05/16 01:52:22;;;;;;;11.10;7.67;;;;;;;;;;5044628;28;20831;-45
2023/05/16 01:54:51;;;;;;;10.03;5.53;;;;;;;;;;5040937;28;20830;-45
2023/05/16 01:57:17;;;;;;;6.90;5.10;;;;;;;;;;5033396;28;20419;-45
2023/05/16 01:59:44;;;;;;;6.33;4.03;;;;;;;;;;5035186;28;20839;-45
2023/05/16 02:02:10;;;;;;;9.20;4.23;;;;;;;;;;5039865;28;20512;-45
2023/05/16 02:04:36;;;;;;;5.57;4.50;;;;;;;;;;5045414;28;20409;-45
2023/05/16 02:07:02;;;;;;;5.37;3.97;;;;;;;;;;5044362;28;20402;-45
2023/05/16 02:09:27;;;;;;;7.43;4.67;;;;;;;;;;5041595;28;20757;-45
2023/05/16 02:11:53;;;;;;;9.80;4.00;;;;;;;;;;5037295;28;20409;-45
2023/05/16 02:14:19;;;;;;;12.60;7.27;;;;;;;;;;5026558;28;20904;-45
2023/05/16 02:16:45;;;;;;;11.83;5.07;;;;;;;;;;5032642;28;20480;-44
2023/05/16 02:19:11;;;;;;;13.50;4.60;;;;;;;;;;5040264;28;20411;-44
2023/05/16 02:21:37;;;;;;;10.90;7.80;;;;;;;;;;5042312;28;20460;-45
2023/05/16 02:24:03;;;;;;;7.93;4.53;;;;;;;;;;5039434;28;20555;-45
2023/05/16 02:26:30;;;;;;;6.00;4.40;;;;;;;;;;5037756;28;20406;-45
2023/05/16 02:28:55;;;;;;;6.33;4.30;;;;;;;;;;5034808;28;20420;-44
2023/05/16 02:31:27;;;;;;;14.53;7.40;;;;;;;;;;5037632;28;20974;-44
2023/05/16 02:33:53;;;;;;;9.37;4.73;;;;;;;;;;5037651;28;20541;-45
2023/05/16 02:36:20;;;;;;;17.50;4.93;;;;;;;;;;5041594;28;20893;-45
2023/05/16 02:38:46;;;;;;;8.80;4.67;;;;;;;;;;5046238;28;20414;-45
2023/05/16 02:41:12;;;;;;;22.97;5.53;;;;;;;;;;5039151;28;20457;-45
2023/05/16 02:43:38;;;;;;;10.80;3.63;;;;;;;;;;5035758;28;20433;-45
2023/05/16 02:46:04;;;;;;;15.20;6.03;;;;;;;;;;5028747;28;20477;-45
2023/05/16 02:48:30;;;;;;;11.07;4.70;;;;;;;;;;5048749;28;20463;-45
2023/05/16 02:50:57;;;;;;;12.20;4.60;;;;;;;;;;5046985;28;20441;-45
2023/05/16 02:53:23;;;;;;;8.73;4.50;;;;;;;;;;5043400;28;20427;-45
2023/05/16 02:55:49;;;;;;;7.37;4.70;;;;;;;;;;5039283;28;20460;-45
2023/05/16 02:58:15;;;;;;;7.20;4.83;;;;;;;;;;5039227;28;20511;-45
2023/05/16 03:00:41;;;;;;;10.80;4.83;;;;;;;;;;5033626;28;20548;-45
2023/05/16 03:03:07;;;;;;;10.83;4.73;;;;;;;;;;5042777;28;20848;-45
2023/05/16 03:05:33;;;;;;;14.03;5.00;;;;;;;;;;5042376;28;20786;-45
2023/05/16 03:07:59;;;;;;;10.47;5.43;;;;;;;;;;5037014;28;20410;-45
2023/05/16 03:10:25;;;;;;;10.60;5.83;;;;;;;;;;5043757;28;20406;-45
2023/05/16 03:12:51;;;;;;;7.57;4.17;;;;;;;;;;5034105;28;20445;-44
2023/05/16 03:15:17;;;;;;;17.10;6.77;;;;;;;;;;5034007;28;20437;-46
2023/05/16 03:17:43;;;;;;;10.20;5.57;;;;;;;;;;5025288;28;20842;-45
2023/05/16 03:20:10;;;;;;;14.60;4.77;;;;;;;;;;5040958;28;20412;-45
2023/05/16 03:22:36;;;;;;;11.20;5.40;;;;;;;;;;5038703;28;20504;-46
2023/05/16 03:25:03;;;;;;;13.27;5.93;;;;;;;;;;5039109;28;20497;-44
2023/05/16 03:27:28;;;;;;;7.87;4.80;;;;;;;;;;5045808;28;20401;-45
2023/05/16 03:29:54;;;;;;;11.43;4.90;;;;;;;;;;5036792;28;20403;-45
2023/05/16 03:32:20;;;;;;;14.57;5.87;;;;;;;;;;5031623;28;20426;-45
2023/05/16 03:34:46;;;;;;;9.63;4.70;;;;;;;;;;5040395;28;20433;-45
2023/05/16 03:37:14;;;;;;;12.23;5.57;;;;;;;;;;5042222;28;20823;-45
2023/05/16 03:39:40;;;;;;;8.80;5.53;;;;;;;;;;5036666;28;20897;-45
2023/05/16 03:42:06;;;;;;;12.53;5.60;;;;;;;;;;5030128;28;20465;-45
2023/05/16 03:44:32;;;;;;;16.67;5.33;;;;;;;;;;5039141;28;20438;-45
2023/05/16 03:46:58;;;;;;;19.57;6.53;;;;;;;;;;5035062;28;20426;-44
2023/05/16 03:49:29;;;;;;;13.40;6.33;;;;;;;;;;5044763;28;20434;-44
2023/05/16 03:51:55;;;;;;;12.03;5.87;;;;;;;;;;5036284;28;20477;-44
2023/05/16 03:54:22;;;;;;;15.43;5.10;;;;;;;;;;5038962;28;20414;-45
2023/05/16 03:56:48;;;;;;;8.50;5.37;;;;;;;;;;5034313;28;20409;-45
2023/05/16 03:59:14;;;;;;;18.07;7.47;;;;;;;;;;5027495;28;20411;-45
2023/05/16 04:01:40;;;;;;;21.57;8.60;;;;;;;;;;5041271;28;20828;-45
2023/05/16 04:04:06;;;;;;;10.87;5.63;;;;;;;;;;5037521;28;20411;-44
2023/05/16 04:06:34;;;;;;;13.60;5.70;;;;;;;;;;5041421;28;20405;-45
2023/05/16 04:09:00;;;;;;;13.40;5.60;;;;;;;;;;5036673;28;20409;-45
2023/05/16 04:11:26;;;;;;;18.07;8.33;;;;;;;;;;5034829;28;20983;-45
2023/05/16 04:13:52;;;;;;;11.97;5.23;;;;;;;;;;5031362;28;20849;-45
2023/05/16 04:16:18;;;;;;;14.47;4.93;;;;;;;;;;5038198;28;20433;-44
2023/05/16 04:18:44;;;;;;;15.50;5.03;;;;;;;;;;5038322;28;21103;-45
2023/05/16 04:21:13;;;;;;;12.10;6.07;;;;;;;;;;5034204;28;20465;-44
2023/05/16 04:23:40;;;;;;;7.67;5.33;;;;;;;;;;5035486;28;20445;-44
2023/05/16 04:26:06;;;;;;;21.30;8.53;;;;;;;;;;5037131;28;20404;-45
2023/05/16 04:28:32;;;;;;;9.57;4.77;;;;;;;;;;5032448;28;20939;-45
2023/05/16 04:30:58;;;;;;;7.23;4.67;;;;;;;;;;5038444;28;20417;-45
2023/05/16 04:33:24;;;;;;;16.33;5.17;;;;;;;;;;5010868;28;20920;-44
2023/05/16 04:35:51;;;;;;;12.73;4.90;;;;;;;;;;5034914;28;20463;-45
2023/05/16 04:38:17;;;;;;;9.83;4.77;;;;;;;;;;5041335;28;20453;-45
2023/05/16 04:40:43;;;;;;;15.53;5.60;;;;;;;;;;5040189;28;20483;-45
2023/05/16 04:43:09;;;;;;;14.13;5.00;;;;;;;;;;5038969;28;20803;-44
2023/05/16 04:45:35;;;;;;;16.87;7.40;;;;;;;;;;5028907;28;20470;-44
2023/05/16 04:48:01;;;;;;;18.37;5.27;;;;;;;;;;5029555;28;20918;-45
2023/05/16 04:50:27;;;;;;;9.20;4.53;;;;;;;;;;5043513;28;20500;-45
2023/05/16 04:52:53;;;;;;;16.33;5.40;;;;;;;;;;5038872;28;20507;-45
2023/05/16 04:55:19;;;;;;;12.87;4.07;;;;;;;;;;5041695;28;20899;-45
2023/05/16 04:57:45;;;;;;;14.37;4.57;;;;;;;;;;5040657;28;20901;-45
2023/05/16 05:00:12;;;;;;;8.00;4.57;;;;;;;;;;5036640;28;20409;-45
2023/05/16 05:02:38;;;;;;;13.70;4.50;;;;;;;;;;5028414;28;20473;-45
2023/05/16 05:05:05;;;;;;;11.23;4.93;;;;;;;;;;5041456;28;20416;-44
2023/05/16 05:07:32;;;;;;;22.53;6.07;;;;;;;;;;5039165;28;20455;-44
2023/05/16 05:09:59;;;;;;;11.33;5.83;;;;;;;;;;5035040;28;20895;-45
2023/05/16 05:12:26;;;;;;;15.60;5.93;;;;;;;;;;5026007;28;20445;-45
2023/05/16 05:14:52;;;;;;;12.40;4.70;;;;;;;;;;5033973;28;20841;-45
2023/05/16 05:17:19;;;;;;;10.10;5.17;;;;;;;;;;5036654;28;20434;-45
2023/05/16 05:19:45;;;;;;;11.20;4.60;;;;;;;;;;5043425;28;20733;-45
2023/05/16 05:22:11;;;;;;;17.77;5.70;;;;;;;;;;5037644;28;20471;-44
2023/05/16 05:24:37;;;;;;;11.03;5.20;;;;;;;;;;5036476;28;20409;-45
2023/05/16 05:27:03;;;;;;;11.33;4.90;;;;;;;;;;5031590;28;20490;-45
2023/05/16 05:29:29;;;;;;;15.90;5.50;;;;;;;;;;5041175;28;20407;-44
2023/05/16 05:31:55;;;;;;;17.30;6.73;;;;;;;;;;5036769;28;20812;-44
2023/05/16 05:34:21;;;;;;;13.17;3.60;;;;;;;;;;5045415;28;20408;-44
2023/05/16 05:36:47;;;;;;;11.87;4.47;;;;;;;;;;5043298;28;20459;-45
2023/05/16 05:39:13;;;;;;;9.93;4.87;;;;;;;;;;5043154;28;20517;-45
2023/05/16 05:41:39;;;;;;;14.47;6.43;;;;;;;;;;5035088;28;20603;-44
2023/05/16 05:44:05;;;;;;;13.10;4.20;;;;;;;;;;5031768;28;20438;-45
2023/05/16 05:46:33;;;;;;;15.33;4.67;;;;;;;;;;5040540;28;20501;-45
2023/05/16 05:48:59;;;;;;;10.50;4.63;;;;;;;;;;5041720;28;20408;-46
2023/05/16 05:51:25;;;;;;;15.17;6.90;;;;;;;;;;5033770;28;20460;-45
2023/05/16 05:53:52;;;;;;;15.80;5.37;;;;;;;;;;5038309;28;20446;-45
2023/05/16 05:56:20;;;;;;;8.43;4.20;;;;;;;;;;5039804;28;20467;-44
2023/05/16 05:58:46;;;;;;;6.93;3.80;;;;;;;;;;5034621;28;20876;-45
2023/05/16 06:01:12;;;;;;;11.60;4.60;;;;;;;;;;5043333;28;20496;-45
2023/05/16 06:03:38;;;;;;;9.93;4.43;;;;;;;;;;5042580;28;20517;-46
2023/05/16 06:06:04;;;;;;;15.60;5.83;;;;;;;;;;5038621;28;20407;-45
2023/05/16 06:08:30;;;;;;;11.17;4.60;;;;;;;;;;5042472;28;20402;-45
2023/05/16 06:10:56;;;;;;;10.67;4.63;;;;;;;;;;5038543;28;20824;-45
2023/05/16 06:13:22;;;;;;;17.30;6.70;;;;;;;;;;5035121;28;20476;-46
2023/05/16 06:15:51;;;;;;;20.53;7.63;;;;;;;;;;5040662;28;20469;-45
2023/05/16 06:18:19;;;;;;;11.33;4.80;;;;;;;;;;5044586;28;20465;-45
2023/05/16 06:20:45;;;;;;;18.30;4.53;;;;;;;;;;5041351;28;20448;-45
2023/05/16 06:23:11;;;;;;;14.83;5.50;;;;;;;;;;5033883;28;20497;-45
2023/05/16 06:25:37;;;;;;;15.33;4.60;;;;;;;;;;5037178;28;20431;-45
2023/05/16 06:28:04;;;;;;;12.70;4.70;;;;;;;;;;5039135;28;20439;-45
2023/05/16 06:30:30;;;;;;;17.63;4.10;;;;;;;;;;5045072;28;20399;-46
2023/05/16 06:32:56;;;;;;;11.97;5.37;;;;;;;;;;5040783;28;21012;-45
2023/05/16 06:35:22;;;;;;;8.40;4.17;;;;;;;;;;5042351;28;20402;-45
2023/05/16 06:37:48;;;;;;;13.50;4.67;;;;;;;;;;5037759;28;20855;-45
2023/05/16 06:40:14;;;;;;;13.07;4.07;;;;;;;;;;5031038;28;20502;-45
2023/05/16 06:42:41;;;;;;;17.13;4.97;;;;;;;;;;5043620;28;20824;-45
2023/05/16 06:45:08;;;;;;;14.80;5.07;;;;;;;;;;5038747;28;20415;-45
2023/05/16 06:47:34;;;;;;;15.50;8.93;;;;;;;;;;5039064;28;20506;-45
2023/05/16 06:50:00;;;;;;;15.43;6.37;;;;;;;;;;5042103;28;20512;-46
2023/05/16 06:52:27;;;;;;;12.47;3.60;;;;;;;;;;5028906;28;20457;-45
2023/05/16 06:54:53;;;;;;;9.70;3.57;;;;;;;;;;5039862;28;20429;-44
2023/05/16 06:57:19;;;;;;;18.70;4.20;;;;;;;;;;5042220;28;20422;-44
2023/05/16 06:59:45;;;;;;;16.50;3.70;;;;;;;;;;5040706;28;20405;-45
2023/05/16 07:02:11;;;;;;;12.27;3.73;;;;;;;;;;5032094;28;20473;-45
2023/05/16 07:04:37;;;;;;;13.40;4.57;;;;;;;;;;5036038;28;20412;-45
2023/05/16 07:07:06;;;;;;;13.13;3.70;;;;;;;;;;5038237;28;20897;-45
2023/05/16 07:09:33;;;;;;;9.73;4.70;;;;;;;;;;5051039;28;20417;-45
2023/05/16 07:11:59;;;;;;;12.20;4.50;;;;;;;;;;5039187;28;20415;-45
2023/05/16 07:14:24;;;;;;;13.73;4.07;;;;;;;;;;5041176;28;20434;-44
2023/05/16 07:16:50;;;;;;;13.70;3.30;;;;;;;;;;5037202;28;20463;-45
2023/05/16 07:19:16;;;;;;;9.33;4.40;;;;;;;;;;5028491;28;20419;-45
2023/05/16 07:21:42;;;;;;;18.13;6.53;;;;;;;;;;5036254;28;20462;-44
2023/05/16 07:24:08;;;;;;;11.00;4.30;;;;;;;;;;5037907;28;20787;-45
2023/05/16 07:26:34;;;;;;;9.33;2.80;;;;;;;;;;5043786;28;20495;-44
2023/05/16 07:29:01;;;;;;;13.83;3.90;;;;;;;;;;5037717;28;20438;-44
2023/05/16 07:31:27;;;;;;;10.97;4.70;;;;;;;;;;5036919;28;20411;-44
2023/05/16 07:33:53;;;;;;;9.53;5.17;;;;;;;;;;5034228;28;20820;-45
2023/05/16 07:36:20;;;;;;;7.20;4.70;;;;;;;;;;5040388;28;20519;-44
2023/05/16 07:38:46;;;;;;;13.40;4.13;;;;;;;;;;5042914;28;20422;-45
2023/05/16 07:41:12;;;;;;;11.23;3.97;;;;;;;;;;5036599;28;20490;-44
2023/05/16 07:43:38;;;;;;;10.63;3.57;;;;;;;;;;5038374;28;20465;-45
2023/05/16 07:46:04;;;;;;;4.90;2.90;;;;;;;;;;5045789;28;20719;-44
2023/05/16 07:48:30;;;;;;;6.80;4.50;;;;;;;;;;5033425;28;20937;-45
2023/05/16 07:50:56;;;;;;;7.60;2.87;;;;;;;;;;5030601;28;20455;-45
2023/05/16 07:53:22;;;;;;;7.50;4.10;;;;;;;;;;5043203;28;20502;-44
2023/05/16 07:55:49;;;;;;;6.60;4.03;;;;;;;;;;5040188;28;20421;-44
2023/05/16 07:58:16;;;;;;;10.53;3.63;;;;;;;;;;5033432;28;20402;-45
2023/05/16 08:00:42;;;;;;;7.70;3.50;;;;;;;;;;5034717;28;20491;-44
2023/05/16 08:03:08;;;;;;;8.87;3.57;;;;;;;;;;5038099;28;20422;-45
2023/05/16 08:05:34;;;;;;;9.03;2.90;;;;;;;;;;5043534;28;20414;-44
2023/05/16 08:08:00;;;;;;;7.07;3.27;;;;;;;;;;5039817;28;20402;-44
2023/05/16 08:10:26;;;;;;;8.50;3.73;;;;;;;;;;5041253;28;20843;-44
2023/05/16 08:12:52;;;;;;;5.63;2.30;;;;;;;;;;5036523;28;20425;-44
2023/05/16 08:15:18;;;;;;;8.53;3.43;;;;;;;;;;5030175;28;20465;-44
2023/05/16 08:17:44;;;;;;;8.93;3.00;;;;;;;;;;5030930;28;20391;-44
2023/05/16 08:20:10;;;;;;;5.17;2.93;;;;;;;;;;5036700;28;20412;-44
2023/05/16 08:22:36;;;;;;;9.50;4.70;;;;;;;;;;5038204;28;20556;-43
2023/05/16 08:25:02;;;;;;;8.57;2.93;;;;;;;;;;5037358;28;20911;-44
2023/05/16 08:27:28;;;;;;;7.87;3.37;;;;;;;;;;5037709;28;20497;-44
2023/05/16 08:29:54;;;;;;;13.07;5.00;;;;;;;;;;5034389;28;20411;-44
2023/05/16 08:32:21;;;;;;;8.53;3.90;;;;;;;;;;5026277;28;20461;-45
2023/05/16 08:34:48;;;;;;;11.23;3.67;;;;;;;;;;5041683;28;20416;-44
2023/05/16 08:37:14;;;;;;;4.23;2.80;;;;;;;;;;5036927;28;20465;-45
2023/05/16 08:39:40;;;;;;;6.50;3.17;;;;;;;;;;5039047;28;20431;-44
2023/05/16 08:42:06;;;;;;;3.93;2.70;;;;;;;;;;5037209;28;20460;-44
2023/05/16 08:44:33;;;;;;;12.70;2.93;;;;;;;;;;5034347;28;20422;-44
2023/05/16 08:47:03;;;;;;;8.50;2.93;;;;;;;;;;5034354;28;20423;-44
2023/05/16 08:49:30;;;;;;;7.40;2.87;;;;;;;;;;5038235;28;20415;-44
2023/05/16 08:51:57;;;;;;;7.20;4.30;;;;;;;;;;5037249;28;20430;-44
2023/05/16 08:54:23;;;;;;;6.70;3.97;;;;;;;;;;5033006;28;20418;-45
2023/05/16 08:56:49;;;;;;;4.50;2.97;;;;;;;;;;5038101;28;20484;-45
2023/05/16 08:59:15;;;;;;;5.47;3.00;;;;;;;;;;5038330;28;21071;-44
2023/05/16 09:01:42;;;;;;;24.63;9.30;;;;;;;;;;5036291;28;20552;-45
2023/05/16 09:04:08;;;;;;;10.67;4.60;;;;;;;;;;5012969;28;20510;-44
2023/05/16 09:06:37;;;;;;;8.43;3.30;;;;;;;;;;5029680;28;20417;-45
2023/05/16 09:09:06;;;;;;;8.80;3.10;;;;;;;;;;5035180;28;20466;-45
2023/05/16 09:11:33;;;;;;;10.50;5.70;;;;;;;;;;5034429;28;20457;-45
2023/05/16 09:13:59;;;;;;;7.63;3.87;;;;;;;;;;5034683;28;20832;-45
2023/05/16 09:16:25;;;;;;;10.07;3.80;;;;;;;;;;5034771;28;20445;-45
2023/05/16 09:19:00;;;;;;;10.67;3.57;;;;;;;;;;5034773;28;20405;-45
2023/05/16 09:21:31;;;;;;;15.07;6.00;;;;;;;;;;5020364;28;20466;-44
2023/05/16 09:24:04;;;;;;;15.77;4.03;;;;;;;;;;5023692;28;20459;-45
2023/05/16 09:26:32;;;;;;;10.40;4.73;;;;;;;;;;5017139;28;20385;-46
2023/05/16 09:28:58;;;;;;;5.17;2.73;;;;;;;;;;5029657;28;20422;-45
2023/05/16 09:31:25;;;;;;;13.20;3.63;;;;;;;;;;5034170;28;20423;-46
2023/05/16 09:34:00;;;;;;;11.90;4.33;;;;;;;;;;5034326;28;20432;-46
2023/05/16 09:36:26;;;;;;;12.30;4.27;;;;;;;;;;5034522;28;20416;-47
2023/05/16 09:38:52;;;;;;;6.40;3.33;;;;;;;;;;5034558;28;20421;-46
2023/05/16 09:41:21;;;;;;;9.33;3.87;;;;;;;;;;5034232;28;20959;-46
2023/05/16 09:43:47;;;;;;;6.07;3.77;;;;;;;;;;5033975;28;21113;-45
2023/05/16 09:46:16;;;;;;;15.00;3.97;;;;;;;;;;5034278;28;20418;-45
2023/05/16 09:48:48;;;;;;;5.93;2.63;;;;;;;;;;5033980;28;20411;-45
2023/05/16 09:51:15;;;;;;;14.13;4.07;;;;;;;;;;5018366;28;20492;-45
2023/05/16 09:53:41;;;;;;;7.17;3.90;;;;;;;;;;5013816;28;20444;-45
2023/05/16 09:56:08;;;;;;;8.07;4.53;;;;;;;;;;5022070;28;20414;-46
2023/05/16 10:01:10;;;;;;;6.30;4.40;;;;;;;;;;5483192;23;20223;-42
2023/05/16 10:03:40;;;;;;;12.23;4.80;;;;;;;;;;5015685;28;20416;-43
2023/05/16 10:06:06;;;;;;;10.57;6.07;;;;;;;;;;5014863;28;20398;-43
2023/05/16 10:08:35;;;;;;;8.00;5.83;;;;;;;;;;5015832;28;20469;-43
2023/05/16 10:11:01;;;;;;;12.17;5.43;;;;;;;;;;5010452;28;20918;-43
2023/05/16 10:13:28;;;;;;;10.50;4.33;;;;;;;;;;5011587;28;20430;-43
2023/05/16 10:15:55;;;;;;;7.93;3.47;;;;;;;;;;5014112;28;20414;-44
2023/05/16 10:18:22;;;;;;;8.00;3.57;;;;;;;;;;5014513;28;20409;-42
2023/05/16 10:20:51;;;;;;;9.07;3.83;;;;;;;;;;5013406;28;20486;-43
2023/05/16 10:23:21;;;;;;;9.13;3.63;;;;;;;;;;5014041;28;20929;-43
2023/05/16 10:25:48;;;;;;;7.17;3.70;;;;;;;;;;5013867;28;20410;-44
2023/05/16 10:28:17;;;;;;;7.10;3.50;;;;;;;;;;5014788;28;20407;-43
2023/05/16 10:30:44;;;;;;;10.50;3.47;;;;;;;;;;5010627;28;21017;-43
2023/05/16 10:33:12;;;;;;;5.27;2.63;;;;;;;;;;5013543;28;20418;-43
2023/05/16 10:35:38;;;;;;;17.93;10.73;;;;;;;;;;5004825;28;20918;-43
2023/05/16 10:38:05;;;;;;;11.90;4.47;;;;;;;;;;5004109;28;20519;-43
2023/05/16 10:40:31;;;;;;;6.30;3.90;;;;;;;;;;5010349;28;20444;-43
2023/05/16 10:42:58;;;;;;;9.57;3.90;;;;;;;;;;5011723;28;20423;-43
2023/05/16 10:45:24;;;;;;;7.20;3.67;;;;;;;;;;5011606;28;20441;-43
2023/05/16 10:47:51;;;;;;;6.80;4.10;;;;;;;;;;5012917;28;20404;-44
2023/05/16 10:50:30;;;;;;;10.70;4.63;;;;;;;;;;5010686;28;20508;-43
2023/05/16 10:52:56;;;;;;;10.40;5.60;;;;;;;;;;5010945;28;20949;-43
2023/05/16 10:55:22;;;;;;;8.73;3.50;;;;;;;;;;5012785;28;20397;-43
2023/05/16 10:57:48;;;;;;;8.60;3.53;;;;;;;;;;5010463;28;20412;-43
2023/05/16 11:00:22;;;;;;;20.97;8.10;;;;;;;;;;5009281;28;20491;-43
2023/05/16 11:02:48;;;;;;;7.60;4.23;;;;;;;;;;5002724;28;20445;-44
2023/05/16 11:05:18;;;;;;;9.67;5.60;;;;;;;;;;5001037;28;20402;-43
2023/05/16 11:07:44;;;;;;;4.43;2.60;;;;;;;;;;5008065;28;20461;-44
2023/05/16 11:10:14;;;;;;;9.10;3.30;;;;;;;;;;5010951;28;20454;-44
2023/05/16 11:12:43;;;;;;;5.60;2.53;;;;;;;;;;5012278;28;20516;-44
2023/05/16 11:15:25;;;;;;;7.63;3.13;;;;;;;;;;5011743;28;20754;-44
2023/05/16 11:17:51;;;;;;;10.53;4.50;;;;;;;;;;5005819;28;20434;-43
2023/05/16 11:20:31;;;;;;;9.50;3.53;;;;;;;;;;5012358;28;20495;-43
2023/05/16 11:23:15;;;;;;;9.40;2.93;;;;;;;;;;5012858;28;20526;-43
2023/05/16 11:25:42;;;;;;;11.00;5.13;;;;;;;;;;5012149;28;20430;-44
2023/05/16 11:28:09;;;;;;;9.43;5.17;;;;;;;;;;5011857;28;20422;-43
2023/05/16 11:30:36;;;;;;;7.73;3.07;;;;;;;;;;5012256;28;20426;-44
2023/05/16 11:33:02;;;;;;;14.37;3.57;;;;;;;;;;5012664;28;20398;-43
2023/05/16 11:35:28;;;;;;;6.60;3.37;;;;;;;;;;5012514;28;20774;-43
2023/05/16 11:37:54;;;;;;;6.70;2.67;;;;;;;;;;5011625;28;20427;-44
2023/05/16 11:40:21;;;;;;;12.10;3.33;;;;;;;;;;5011706;28;20514;-43
2023/05/16 11:42:47;;;;;;;8.23;2.70;;;;;;;;;;5011404;28;20997;-43
2023/05/16 11:45:16;;;;;;;10.33;3.30;;;;;;;;;;5012344;28;20414;-43
2023/05/16 11:47:43;;;;;;;6.07;3.37;;;;;;;;;;5012088;28;20408;-43
2023/05/16 11:50:12;;;;;;;6.27;3.57;;;;;;;;;;5011913;28;20438;-43
2023/05/16 11:52:38;;;;;;;7.27;3.80;;;;;;;;;;5012444;28;20472;-43
2023/05/16 11:55:05;;;;;;;11.47;4.10;;;;;;;;;;5014140;28;20424;-43
2023/05/16 11:57:32;;;;;;;8.70;3.47;;;;;;;;;;5013392;28;20911;-43
2023/05/16 12:00:06;;;;;;;13.40;6.30;;;;;;;;;;5011665;28;20426;-42
2023/05/16 12:02:33;;;;;;;6.83;2.47;;;;;;;;;;5010586;28;20942;-43
2023/05/16 12:04:59;;;;;;;11.57;3.43;;;;;;;;;;5012038;28;20388;-43
2023/05/16 12:07:28;;;;;;;7.57;3.73;;;;;;;;;;5011759;28;20409;-43
2023/05/16 12:09:54;;;;;;;6.80;4.47;;;;;;;;;;5011859;28;20412;-44
2023/05/16 12:12:21;;;;;;;13.23;3.67;;;;;;;;;;5011817;28;20425;-44
2023/05/16 12:14:47;;;;;;;7.30;3.13;;;;;;;;;;5012196;28;20442;-44
2023/05/16 12:17:13;;;;;;;7.10;3.27;;;;;;;;;;5011855;28;20420;-44
2023/05/16 12:19:39;;;;;;;4.67;3.33;;;;;;;;;;5011713;28;20411;-44
2023/05/16 12:22:15;;;;;;;9.37;3.50;;;;;;;;;;5011220;28;20542;-44
2023/05/16 12:24:41;;;;;;;7.00;3.83;;;;;;;;;;5011711;28;20418;-44
2023/05/16 12:27:07;;;;;;;6.67;3.03;;;;;;;;;;5011747;28;20407;-44
2023/05/16 12:29:33;;;;;;;6.83;2.97;;;;;;;;;;5010199;28;20430;-44
2023/05/16 12:31:59;;;;;;;3.57;2.27;;;;;;;;;;5011414;28;20419;-44
2023/05/16 12:34:28;;;;;;;4.83;2.57;;;;;;;;;;5011498;28;20928;-44
2023/05/16 12:36:54;;;;;;;5.10;2.60;;;;;;;;;;5011671;28;20441;-44
2023/05/16 12:39:20;;;;;;;6.67;2.70;;;;;;;;;;5011872;28;20425;-43
2023/05/16 12:41:46;;;;;;;4.50;2.37;;;;;;;;;;5015208;28;20466;-42
2023/05/16 12:44:13;;;;;;;11.90;3.30;;;;;;;;;;5015827;28;20467;-43
2023/05/16 12:47:05;;;;;;;6.73;3.60;;;;;;;;;;5015438;28;20413;-43
2023/05/16 12:49:32;;;;;;;6.07;3.13;;;;;;;;;;5012771;28;20438;-43
2023/05/16 12:52:04;;;;;;;6.30;3.10;;;;;;;;;;5015374;28;20442;-43
2023/05/16 12:54:30;;;;;;;7.27;3.07;;;;;;;;;;5015801;28;20423;-43
2023/05/16 12:56:56;;;;;;;5.57;2.67;;;;;;;;;;5020032;28;20414;-43
2023/05/16 12:59:22;;;;;;;4.63;2.50;;;;;;;;;;5014359;28;20811;-43
2023/05/16 13:01:48;;;;;;;7.47;3.03;;;;;;;;;;5013944;28;20454;-43
2023/05/16 13:04:17;;;;;;;7.10;3.20;;;;;;;;;;5015237;28;20525;-45
2023/05/16 13:06:43;;;;;;;4.30;2.13;;;;;;;;;;5007411;28;20508;-44
2023/05/16 13:09:10;;;;;;;7.77;3.47;;;;;;;;;;5015235;28;20545;-44
2023/05/16 13:11:36;;;;;;;6.20;3.40;;;;;;;;;;5014680;28;20858;-43
2023/05/16 13:14:02;;;;;;;4.60;2.43;;;;;;;;;;5015769;28;20418;-43
2023/05/16 13:16:28;;;;;;;12.67;4.27;;;;;;;;;;5014904;28;20433;-43
2023/05/16 13:18:54;;;;;;;5.60;2.50;;;;;;;;;;5015218;28;20898;-43
2023/05/16 13:21:21;;;;;;;4.50;3.17;;;;;;;;;;5014461;28;20897;-43
2023/05/16 13:23:47;;;;;;;4.03;2.33;;;;;;;;;;5014882;28;20407;-43
2023/05/16 13:26:12;;;;;;;6.77;2.97;;;;;;;;;;5014968;28;20421;-43
2023/05/16 13:28:38;;;;;;;9.07;4.97;;;;;;;;;;5012913;28;20421;-43
2023/05/16 13:31:04;;;;;;;4.20;2.77;;;;;;;;;;5014411;28;20446;-43
2023/05/16 13:33:30;;;;;;;5.57;2.53;;;;;;;;;;5013838;28;20413;-43
2023/05/16 13:35:56;;;;;;;8.40;2.93;;;;;;;;;;5014794;28;20381;-43
2023/05/16 13:38:22;;;;;;;6.03;3.13;;;;;;;;;;5014542;28;20407;-43
2023/05/16 13:40:48;;;;;;;5.70;2.77;;;;;;;;;;5014149;28;20777;-43
2023/05/16 13:43:15;;;;;;;5.60;3.20;;;;;;;;;;5014474;28;20744;-43
2023/05/16 13:45:41;;;;;;;6.63;2.63;;;;;;;;;;5014527;28;20413;-43
2023/05/16 13:48:07;;;;;;;8.00;3.13;;;;;;;;;;5014621;28;20381;-43
2023/05/16 13:50:32;;;;;;;5.50;2.73;;;;;;;;;;5014077;28;20420;-43
2023/05/16 13:52:58;;;;;;;3.80;2.53;;;;;;;;;;5013696;28;20494;-43
2023/05/16 13:55:25;;;;;;;6.70;2.53;;;;;;;;;;5018824;28;20424;-43
2023/05/16 13:57:51;;;;;;;6.93;3.50;;;;;;;;;;5014083;28;20408;-43
2023/05/16 14:00:18;;;;;;;6.87;3.10;;;;;;;;;;5012653;28;20435;-43
2023/05/16 14:02:44;;;;;;;8.20;3.07;;;;;;;;;;5013458;28;20475;-43
2023/05/16 14:05:10;;;;;;;4.33;2.60;;;;;;;;;;5014113;28;20808;-44
2023/05/16 14:07:36;;;;;;;5.50;3.17;;;;;;;;;;5014254;28;20415;-44
2023/05/16 14:10:02;;;;;;;7.90;3.33;;;;;;;;;;5013789;28;21010;-44
2023/05/16 14:12:28;;;;;;;5.40;2.93;;;;;;;;;;5013872;28;20432;-43
2023/05/16 14:14:54;;;;;;;3.77;2.50;;;;;;;;;;5014077;28;20906;-43
2023/05/16 14:17:20;;;;;;;5.40;2.90;;;;;;;;;;5013847;28;20426;-43
2023/05/16 14:19:46;;;;;;;8.57;2.67;;;;;;;;;;5013407;28;20472;-43
2023/05/16 14:22:12;;;;;;;5.27;2.37;;;;;;;;;;5013508;28;20462;-43
2023/05/16 14:24:38;;;;;;;4.67;2.40;;;;;;;;;;5013686;28;20431;-43
2023/05/16 14:27:04;;;;;;;4.83;2.40;;;;;;;;;;5014173;28;20403;-43
2023/05/16 14:29:30;;;;;;;7.87;3.23;;;;;;;;;;5012572;28;20513;-43
2023/05/16 14:31:56;;;;;;;5.80;3.00;;;;;;;;;;5012197;28;20966;-43
2023/05/16 14:34:22;;;;;;;5.17;3.57;;;;;;;;;;5013631;28;20486;-43
2023/05/16 14:36:48;;;;;;;5.17;2.60;;;;;;;;;;5013546;28;20415;-44